Time;durP1;ratioP1;P1;durP2;ratioP2;P2;SDS_P1;SDS_P2;PMS_P1;PMS_P2;Temp;Humidity;BMP_temperature;BMP_pressure;BME280_temperature;BME280_humidity;BME280_pressure;Samples;Min_cycle;Max_cycle;Signal;HPM_P1;HPM_P2
2021/09/09 00:01:23;;;;;;;;;;;24.20;50.20;;;;;;1614020;72;723;-70
2021/09/09 00:03:25;;;;;;;;;;;24.30;50.30;;;;;;1614120;72;738;-72
2021/09/09 00:05:27;;;;;;;;;;;24.20;50.00;;;;;;1617318;72;724;-71
2021/09/09 00:07:29;;;;;;;;;;;24.20;50.00;;;;;;1618028;72;623;-74
2021/09/09 00:09:31;;;;;;;;;;;24.20;50.00;;;;;;1619994;72;1936;-70
2021/09/09 00:11:33;;;;;;;;;;;24.20;50.00;;;;;;1625286;72;821;-70
2021/09/09 00:13:34;;;;;;;;;;;24.30;49.90;;;;;;1623816;72;773;-70
2021/09/09 00:15:36;;;;;;;;;;;24.20;49.70;;;;;;1624221;73;661;-70
2021/09/09 00:17:39;;;;;;;;;;;24.30;50.00;;;;;;1617938;72;1120;-71
2021/09/09 00:19:41;;;;;;;;;;;24.30;49.90;;;;;;1602806;72;738;-71
2021/09/09 00:21:43;;;;;;;;;;;24.20;49.60;;;;;;1620936;72;744;-70
2021/09/09 00:23:44;;;;;;;;;;;24.20;49.60;;;;;;1617400;72;707;-71
2021/09/09 00:25:46;;;;;;;;;;;24.20;49.60;;;;;;1623560;73;741;-71
2021/09/09 00:27:48;;;;;;;;;;;24.20;49.50;;;;;;1612511;72;1151;-71
2021/09/09 00:29:50;;;;;;;;;;;24.20;49.50;;;;;;1618738;72;1929;-71
2021/09/09 00:31:52;;;;;;;;;;;24.20;49.40;;;;;;1619772;73;741;-70
2021/09/09 00:33:54;;;;;;;;;;;24.30;49.40;;;;;;1610690;72;704;-70
2021/09/09 00:35:56;;;;;;;;;;;24.30;49.60;;;;;;1624992;72;660;-70
2021/09/09 00:37:58;;;;;;;;;;;24.20;49.40;;;;;;1626352;72;1238;-70
2021/09/09 00:39:59;;;;;;;;;;;24.20;49.40;;;;;;1617312;73;782;-72
2021/09/09 00:42:01;;;;;;;;;;;24.20;49.50;;;;;;1626005;72;716;-70
2021/09/09 00:44:03;;;;;;;;;;;24.20;49.50;;;;;;1619965;73;820;-70
2021/09/09 00:46:05;;;;;;;;;;;24.20;49.50;;;;;;1624423;72;784;-71
2021/09/09 00:48:07;;;;;;;;;;;24.20;49.60;;;;;;1623054;72;1094;-69
2021/09/09 00:50:09;;;;;;;;;;;24.20;49.50;;;;;;1614751;72;1920;-72
2021/09/09 00:52:11;;;;;;;;;;;24.20;49.60;;;;;;1612355;72;731;-73
2021/09/09 00:54:13;;;;;;;;;;;24.20;49.50;;;;;;1619373;72;782;-70
2021/09/09 00:56:15;;;;;;;;;;;24.30;49.70;;;;;;1619832;72;787;-69
2021/09/09 00:58:17;;;;;;;;;;;24.20;49.50;;;;;;1619221;72;1130;-69
2021/09/09 01:00:19;;;;;;;;;;;24.20;49.40;;;;;;1623244;73;708;-69
2021/09/09 01:02:21;;;;;;;;;;;24.20;49.40;;;;;;1621944;72;735;-69
2021/09/09 01:04:23;;;;;;;;;;;24.20;49.40;;;;;;1624917;72;815;-67
2021/09/09 01:06:24;;;;;;;;;;;24.20;49.30;;;;;;1627869;72;750;-67
2021/09/09 01:08:26;;;;;;;;;;;24.20;49.20;;;;;;1602983;73;225528;-79
2021/09/09 01:10:28;;;;;;;;;;;24.20;49.40;;;;;;1544810;76;1943;-77
2021/09/09 01:12:30;;;;;;;;;;;24.30;49.50;;;;;;1538652;75;693;-78
2021/09/09 01:14:32;;;;;;;;;;;24.20;49.40;;;;;;1558257;75;676;-78
2021/09/09 01:16:34;;;;;;;;;;;24.20;49.40;;;;;;1539686;75;1195;-79
2021/09/09 01:18:36;;;;;;;;;;;24.20;49.50;;;;;;1523406;77;729;-78
2021/09/09 01:20:38;;;;;;;;;;;24.20;49.40;;;;;;1524697;76;709;-78
2021/09/09 01:22:40;;;;;;;;;;;24.20;49.40;;;;;;1522470;77;729;-82
2021/09/09 01:24:42;;;;;;;;;;;24.20;49.40;;;;;;1520958;77;699;-79
2021/09/09 01:26:48;;;;;;;;;;;24.20;49.40;;;;;;1510632;76;1278;-82
2021/09/09 01:28:50;;;;;;;;;;;24.20;49.30;;;;;;1513662;76;1058;-79
2021/09/09 01:30:52;;;;;;;;;;;24.30;49.40;;;;;;1511417;77;1967;-79
2021/09/09 01:32:54;;;;;;;;;;;24.30;49.20;;;;;;1517460;76;684;-78
2021/09/09 01:34:56;;;;;;;;;;;24.30;49.20;;;;;;1521907;76;730;-79
2021/09/09 01:36:58;;;;;;;;;;;24.20;49.10;;;;;;1525396;76;1187;-80
2021/09/09 01:38:59;;;;;;;;;;;24.30;49.20;;;;;;1528419;76;702;-80
2021/09/09 01:41:02;;;;;;;;;;;24.20;49.10;;;;;;1520849;76;733;-79
2021/09/09 01:43:04;;;;;;;;;;;24.30;49.10;;;;;;1522714;76;718;-79
2021/09/09 01:45:08;;;;;;;;;;;24.20;48.90;;;;;;1524640;76;665;-79
2021/09/09 01:47:10;;;;;;;;;;;24.40;49.00;;;;;;1533514;76;1129;-80
2021/09/09 01:49:12;;;;;;;;;;;24.20;48.80;;;;;;1519709;76;740;-80
2021/09/09 01:51:14;;;;;;;;;;;24.30;49.10;;;;;;1533952;76;1941;-81
2021/09/09 01:53:16;;;;;;;;;;;24.20;48.90;;;;;;1533784;76;713;-78
2021/09/09 01:55:18;;;;;;;;;;;24.20;48.70;;;;;;1524399;76;749;-79
2021/09/09 01:57:20;;;;;;;;;;;24.30;48.90;;;;;;1522301;76;1134;-82
2021/09/09 01:59:21;;;;;;;;;;;24.30;49.00;;;;;;1516517;76;710;-80
2021/09/09 02:01:23;;;;;;;;;;;24.30;49.10;;;;;;1527542;76;741;-81
2021/09/09 02:03:25;;;;;;;;;;;24.20;49.00;;;;;;1525400;77;636;-81
2021/09/09 02:05:27;;;;;;;;;;;24.30;49.20;;;;;;1523220;77;750;-81
2021/09/09 02:07:29;;;;;;;;;;;24.20;49.20;;;;;;1519947;76;1152;-82
2021/09/09 02:09:31;;;;;;;;;;;24.20;49.20;;;;;;1517369;76;851;-81
2021/09/09 02:11:33;;;;;;;;;;;24.30;49.40;;;;;;1520382;76;1936;-82
2021/09/09 02:13:35;;;;;;;;;;;24.20;49.30;;;;;;1525628;76;748;-80
2021/09/09 02:15:36;;;;;;;;;;;24.20;49.40;;;;;;1519903;76;731;-81
2021/09/09 02:17:38;;;;;;;;;;;24.20;49.40;;;;;;1525591;76;1105;-80
2021/09/09 02:19:40;;;;;;;;;;;24.20;49.40;;;;;;1520102;77;1069;-80
2021/09/09 02:21:42;;;;;;;;;;;24.20;49.40;;;;;;1522670;77;718;-80
2021/09/09 02:23:44;;;;;;;;;;;24.20;49.50;;;;;;1523404;77;757;-81
2021/09/09 02:25:46;;;;;;;;;;;24.20;49.50;;;;;;1522914;77;684;-79
2021/09/09 02:27:48;;;;;;;;;;;24.20;49.60;;;;;;1521061;77;1143;-79
2021/09/09 02:29:50;;;;;;;;;;;24.20;49.70;;;;;;1518987;77;1948;-81
2021/09/09 02:31:51;;;;;;;;;;;24.20;49.60;;;;;;1523013;77;724;-81
2021/09/09 02:33:53;;;;;;;;;;;24.20;49.70;;;;;;1526664;76;723;-80
2021/09/09 02:35:55;;;;;;;;;;;24.20;49.70;;;;;;1523074;76;1394;-83
2021/09/09 02:37:57;;;;;;;;;;;24.20;49.80;;;;;;1513187;76;739;-81
2021/09/09 02:39:59;;;;;;;;;;;24.20;49.80;;;;;;1523855;76;727;-81
2021/09/09 02:42:01;;;;;;;;;;;24.20;49.80;;;;;;1513768;76;711;-81
2021/09/09 02:44:03;;;;;;;;;;;24.20;49.70;;;;;;1520105;76;703;-81
2021/09/09 02:46:05;;;;;;;;;;;24.20;49.70;;;;;;1544851;76;1184;-81
2021/09/09 02:48:06;;;;;;;;;;;24.20;49.80;;;;;;1542369;76;733;-81
2021/09/09 02:50:08;;;;;;;;;;;24.20;49.70;;;;;;1526103;76;1906;-84
2021/09/09 02:52:10;;;;;;;;;;;24.20;49.70;;;;;;1523298;76;707;-82
2021/09/09 02:54:12;;;;;;;;;;;24.20;49.70;;;;;;1524228;77;732;-81
2021/09/09 02:56:14;;;;;;;;;;;24.20;49.80;;;;;;1537353;76;1152;-82
2021/09/09 02:58:16;;;;;;;;;;;24.20;49.90;;;;;;1524150;76;643;-83
2021/09/09 03:00:18;;;;;;;;;;;24.20;49.90;;;;;;1527937;76;680;-83
2021/09/09 03:02:20;;;;;;;;;;;24.20;50.00;;;;;;1530610;76;961;-80
2021/09/09 03:04:21;;;;;;;;;;;24.20;50.00;;;;;;1533273;76;717;-81
2021/09/09 03:06:23;;;;;;;;;;;24.20;50.00;;;;;;1523112;77;1173;-80
2021/09/09 03:08:25;;;;;;;;;;;24.20;50.00;;;;;;1521085;77;719;-79
2021/09/09 03:10:27;;;;;;;;;;;24.20;50.00;;;;;;1528585;76;1932;-80
2021/09/09 03:12:29;;;;;;;;;;;24.10;50.00;;;;;;1520293;76;650;-79
2021/09/09 03:14:31;;;;;;;;;;;24.10;50.10;;;;;;1521468;76;718;-79
2021/09/09 03:16:33;;;;;;;;;;;24.20;50.10;;;;;;1525846;76;1158;-79
2021/09/09 03:18:35;;;;;;;;;;;24.10;50.10;;;;;;1533235;76;703;-81
2021/09/09 03:20:36;;;;;;;;;;;24.10;50.20;;;;;;1525227;77;701;-80
2021/09/09 03:22:38;;;;;;;;;;;24.10;50.20;;;;;;1535035;76;735;-80
2021/09/09 03:24:40;;;;;;;;;;;24.10;50.20;;;;;;1543670;76;701;-80
2021/09/09 03:26:42;;;;;;;;;;;24.10;50.20;;;;;;1538087;76;1135;-80
2021/09/09 03:28:44;;;;;;;;;;;24.10;50.30;;;;;;1532859;76;708;-80
2021/09/09 03:30:46;;;;;;;;;;;24.10;50.20;;;;;;1536896;76;1931;-84
2021/09/09 03:32:48;;;;;;;;;;;24.10;50.20;;;;;;1540752;76;722;-80
2021/09/09 03:34:50;;;;;;;;;;;24.10;50.20;;;;;;1523268;76;725;-80
2021/09/09 03:36:51;;;;;;;;;;;24.10;50.40;;;;;;1530247;76;1138;-80
2021/09/09 03:38:54;;;;;;;;;;;24.10;50.40;;;;;;1523759;76;730;-80
2021/09/09 03:40:56;;;;;;;;;;;24.00;50.20;;;;;;1517541;76;775;-80
2021/09/09 03:42:58;;;;;;;;;;;24.10;50.40;;;;;;1534360;76;728;-81
2021/09/09 03:45:00;;;;;;;;;;;24.10;50.40;;;;;;1534430;76;706;-81
2021/09/09 03:47:02;;;;;;;;;;;24.10;50.40;;;;;;1521783;76;1187;-81
2021/09/09 03:49:04;;;;;;;;;;;24.10;50.40;;;;;;1529406;76;639;-82
2021/09/09 03:51:06;;;;;;;;;;;24.10;50.40;;;;;;1529043;76;1929;-81
2021/09/09 03:53:08;;;;;;;;;;;24.00;50.20;;;;;;1522519;76;779;-80
2021/09/09 03:55:10;;;;;;;;;;;24.10;50.40;;;;;;1519388;76;675;-81
2021/09/09 03:57:12;;;;;;;;;;;24.00;50.20;;;;;;1528289;76;1181;-81
2021/09/09 03:59:13;;;;;;;;;;;24.00;50.30;;;;;;1529055;76;743;-80
2021/09/09 04:01:15;;;;;;;;;;;24.00;50.30;;;;;;1542219;76;722;-80
2021/09/09 04:03:17;;;;;;;;;;;24.00;50.30;;;;;;1534357;76;729;-80
2021/09/09 04:05:19;;;;;;;;;;;24.10;50.40;;;;;;1529091;76;728;-79
2021/09/09 04:07:21;;;;;;;;;;;24.00;50.30;;;;;;1518345;76;1146;-80
2021/09/09 04:09:23;;;;;;;;;;;24.00;50.20;;;;;;1514362;77;701;-79
2021/09/09 04:11:25;;;;;;;;;;;24.00;50.30;;;;;;1527257;76;1948;-80
2021/09/09 04:13:27;;;;;;;;;;;24.00;50.40;;;;;;1519752;76;710;-80
2021/09/09 04:15:28;;;;;;;;;;;24.00;50.30;;;;;;1529630;76;717;-80
2021/09/09 04:17:31;;;;;;;;;;;24.00;50.30;;;;;;1520876;76;1088;-79
2021/09/09 04:19:33;;;;;;;;;;;24.10;50.50;;;;;;1531712;77;730;-80
2021/09/09 04:21:35;;;;;;;;;;;24.00;50.40;;;;;;1533690;77;732;-79
2021/09/09 04:23:37;;;;;;;;;;;24.00;50.40;;;;;;1536124;77;655;-80
2021/09/09 04:25:39;;;;;;;;;;;24.00;50.40;;;;;;1525825;76;757;-82
2021/09/09 04:27:41;;;;;;;;;;;24.00;50.40;;;;;;1524166;76;1121;-79
2021/09/09 04:29:43;;;;;;;;;;;24.00;50.40;;;;;;1532575;76;718;-79
2021/09/09 04:31:45;;;;;;;;;;;24.10;50.60;;;;;;1543674;76;1963;-81
2021/09/09 04:33:46;;;;;;;;;;;24.00;50.50;;;;;;1527043;77;721;-81
2021/09/09 04:35:50;;;;;;;;;;;24.10;50.60;;;;;;1526538;76;707;-82
2021/09/09 04:37:52;;;;;;;;;;;24.00;50.50;;;;;;1521553;76;910;-80
2021/09/09 04:39:54;;;;;;;;;;;24.00;50.50;;;;;;1519659;76;734;-80
2021/09/09 04:41:58;;;;;;;;;;;24.00;50.60;;;;;;1536183;76;721;-79
2021/09/09 04:43:59;;;;;;;;;;;24.00;50.50;;;;;;1512783;77;1125;-80
2021/09/09 04:46:01;;;;;;;;;;;24.10;50.60;;;;;;1521288;77;1161;-81
2021/09/09 04:48:04;;;;;;;;;;;24.00;50.50;;;;;;1519997;76;750;-82
2021/09/09 04:50:06;;;;;;;;;;;24.00;50.50;;;;;;1527197;76;761;-80
2021/09/09 04:52:08;;;;;;;;;;;24.10;50.60;;;;;;1526682;76;1936;-79
2021/09/09 04:54:10;;;;;;;;;;;24.00;50.40;;;;;;1509758;77;737;-82
2021/09/09 04:56:11;;;;;;;;;;;24.00;50.40;;;;;;1529022;76;1154;-79
2021/09/09 04:58:13;;;;;;;;;;;24.00;50.40;;;;;;1522040;76;744;-80
2021/09/09 05:00:15;;;;;;;;;;;24.00;50.50;;;;;;1522267;76;630;-81
2021/09/09 05:02:17;;;;;;;;;;;24.00;50.50;;;;;;1529946;76;738;-79
2021/09/09 05:04:19;;;;;;;;;;;24.00;50.60;;;;;;1538443;76;870;-80
2021/09/09 05:06:21;;;;;;;;;;;24.00;50.60;;;;;;1517825;76;1135;-80
2021/09/09 05:08:23;;;;;;;;;;;24.00;50.50;;;;;;1523007;76;726;-83
2021/09/09 05:10:25;;;;;;;;;;;24.10;50.60;;;;;;1522698;76;789;-80
2021/09/09 05:12:27;;;;;;;;;;;24.00;50.50;;;;;;1524774;76;1933;-79
2021/09/09 05:14:29;;;;;;;;;;;24.00;50.50;;;;;;1520344;76;749;-80
2021/09/09 05:16:30;;;;;;;;;;;24.00;50.50;;;;;;1526036;76;1167;-81
2021/09/09 05:18:32;;;;;;;;;;;24.00;50.50;;;;;;1513275;76;766;-79
2021/09/09 05:20:34;;;;;;;;;;;24.00;50.50;;;;;;1531504;76;729;-79
2021/09/09 05:22:37;;;;;;;;;;;24.00;50.50;;;;;;1519049;76;721;-80
2021/09/09 05:24:38;;;;;;;;;;;24.00;50.50;;;;;;1525317;77;980;-82
2021/09/09 05:26:40;;;;;;;;;;;24.00;50.50;;;;;;1529693;76;1123;-79
2021/09/09 05:28:42;;;;;;;;;;;24.00;50.50;;;;;;1523294;76;689;-79
2021/09/09 05:30:44;;;;;;;;;;;24.00;50.60;;;;;;1527113;76;701;-81
2021/09/09 05:32:46;;;;;;;;;;;24.00;50.50;;;;;;1529206;76;1925;-80
2021/09/09 05:34:48;;;;;;;;;;;24.00;50.60;;;;;;1525923;76;679;-80
2021/09/09 05:36:50;;;;;;;;;;;24.00;50.60;;;;;;1503635;76;1183;-81
2021/09/09 05:38:52;;;;;;;;;;;24.00;50.50;;;;;;1527719;77;738;-79
2021/09/09 05:40:54;;;;;;;;;;;24.00;50.50;;;;;;1518020;77;711;-80
2021/09/09 05:42:56;;;;;;;;;;;24.00;50.50;;;;;;1525935;76;718;-81
2021/09/09 05:44:58;;;;;;;;;;;24.00;50.60;;;;;;1523844;76;658;-79
2021/09/09 05:47:00;;;;;;;;;;;24.00;50.60;;;;;;1519940;77;1191;-79
2021/09/09 05:49:02;;;;;;;;;;;24.00;50.60;;;;;;1526194;77;722;-79
2021/09/09 05:51:05;;;;;;;;;;;24.00;50.60;;;;;;1526707;77;1929;-79
2021/09/09 05:53:07;;;;;;;;;;;24.00;50.60;;;;;;1525568;76;652;-80
2021/09/09 05:55:09;;;;;;;;;;;23.90;50.70;;;;;;1525948;77;770;-80
2021/09/09 05:57:11;;;;;;;;;;;24.00;50.70;;;;;;1513489;76;1088;-79
2021/09/09 05:59:13;;;;;;;;;;;24.00;50.70;;;;;;1528934;77;765;-82
2021/09/09 06:01:15;;;;;;;;;;;24.00;50.80;;;;;;1511529;76;662;-82
2021/09/09 06:03:17;;;;;;;;;;;24.00;50.90;;;;;;1516019;76;724;-79
2021/09/09 06:05:19;;;;;;;;;;;24.00;51.00;;;;;;1527931;76;730;-81
2021/09/09 06:07:21;;;;;;;;;;;24.00;51.00;;;;;;1512578;76;1146;-79
2021/09/09 06:09:23;;;;;;;;;;;24.00;50.90;;;;;;1527569;76;705;-79
2021/09/09 06:11:25;;;;;;;;;;;24.00;51.00;;;;;;1540615;76;1941;-80
2021/09/09 06:13:26;;;;;;;;;;;24.00;51.10;;;;;;1522146;76;690;-79
2021/09/09 06:15:28;;;;;;;;;;;24.00;51.20;;;;;;1531295;77;594;-79
2021/09/09 06:17:31;;;;;;;;;;;24.00;50.90;;;;;;1532701;77;1155;-79
2021/09/09 06:19:33;;;;;;;;;;;24.00;50.20;;;;;;1523688;77;735;-79
2021/09/09 06:21:35;;;;;;;;;;;24.00;49.80;;;;;;1535199;76;768;-79
2021/09/09 06:23:37;;;;;;;;;;;24.00;49.60;;;;;;1515949;76;745;-79
2021/09/09 06:25:39;;;;;;;;;;;24.00;49.50;;;;;;1530193;76;756;-82
2021/09/09 06:27:40;;;;;;;;;;;24.00;49.30;;;;;;1531913;76;1095;-79
2021/09/09 06:29:42;;;;;;;;;;;24.00;49.20;;;;;;1510224;76;712;-79
2021/09/09 06:31:44;;;;;;;;;;;24.00;49.20;;;;;;1521694;76;1937;-79
2021/09/09 06:33:46;;;;;;;;;;;23.90;49.10;;;;;;1537967;76;766;-79
2021/09/09 06:35:52;;;;;;;;;;;23.90;49.00;;;;;;1525187;76;729;-79
2021/09/09 06:37:51;;;;;;;;;;;23.90;49.00;;;;;;1534764;76;886;-79
2021/09/09 06:39:53;;;;;;;;;;;23.90;49.00;;;;;;1529993;76;710;-80
2021/09/09 06:41:55;;;;;;;;;;;23.90;48.90;;;;;;1530228;76;777;-79
2021/09/09 06:43:57;;;;;;;;;;;23.90;49.20;;;;;;1539760;76;740;-79
2021/09/09 06:45:59;;;;;;;;;;;23.90;49.20;;;;;;1523411;76;1169;-79
2021/09/09 06:48:01;;;;;;;;;;;23.90;49.40;;;;;;1531509;76;703;-79
2021/09/09 06:50:03;;;;;;;;;;;23.90;49.90;;;;;;1526701;76;712;-82
2021/09/09 06:52:05;;;;;;;;;;;23.90;49.80;;;;;;1541948;76;1928;-81
2021/09/09 06:54:07;;;;;;;;;;;23.80;49.80;;;;;;1536295;77;709;-80
2021/09/09 06:56:08;;;;;;;;;;;23.90;50.00;;;;;;1529000;76;1152;-79
2021/09/09 06:58:10;;;;;;;;;;;23.90;49.90;;;;;;1528907;76;705;-79
2021/09/09 07:00:12;;;;;;;;;;;23.90;49.80;;;;;;1521295;76;708;-79
2021/09/09 07:02:14;;;;;;;;;;;23.90;49.80;;;;;;1515281;76;768;-83
2021/09/09 07:04:16;;;;;;;;;;;24.00;49.50;;;;;;1528488;76;778;-81
2021/09/09 07:06:18;;;;;;;;;;;24.00;49.40;;;;;;1529801;76;1105;-79
2021/09/09 07:08:20;;;;;;;;;;;24.10;49.50;;;;;;1532511;76;772;-79
2021/09/09 07:10:22;;;;;;;;;;;24.20;49.40;;;;;;1515447;77;672;-81
2021/09/09 07:12:24;;;;;;;;;;;24.10;49.20;;;;;;1528394;77;1941;-80
2021/09/09 07:14:25;;;;;;;;;;;24.20;49.40;;;;;;1526270;76;691;-79
2021/09/09 07:16:27;;;;;;;;;;;24.30;49.40;;;;;;1523768;76;1167;-79
2021/09/09 07:18:29;;;;;;;;;;;24.30;49.40;;;;;;1518521;77;736;-79
2021/09/09 07:20:31;;;;;;;;;;;24.30;49.20;;;;;;1532625;76;724;-86
2021/09/09 07:22:33;;;;;;;;;;;24.30;49.20;;;;;;1532851;73;221743;-61
2021/09/09 07:24:35;;;;;;;;;;;24.40;49.10;;;;;;1548463;75;1228;-60
2021/09/09 07:26:37;;;;;;;;;;;24.40;48.90;;;;;;1561689;76;772;-59
2021/09/09 07:28:39;;;;;;;;;;;24.50;48.40;;;;;;1570073;74;763;-57
2021/09/09 07:30:41;;;;;;;;;;;24.50;47.80;;;;;;1566802;76;765;-57
2021/09/09 07:32:42;;;;;;;;;;;24.50;47.80;;;;;;1560326;76;1930;-61
2021/09/09 07:34:44;;;;;;;;;;;24.60;47.70;;;;;;1558648;76;1107;-61
2021/09/09 07:36:46;;;;;;;;;;;24.60;48.00;;;;;;1550875;76;726;-61
2021/09/09 07:38:48;;;;;;;;;;;24.60;48.10;;;;;;1552298;76;790;-60
2021/09/09 07:40:50;;;;;;;;;;;24.70;48.10;;;;;;1546453;76;751;-61
2021/09/09 07:42:52;;;;;;;;;;;24.60;48.00;;;;;;1551494;76;767;-59
2021/09/09 07:44:54;;;;;;;;;;;24.70;48.20;;;;;;1551593;76;753;-59
2021/09/09 07:46:56;;;;;;;;;;;24.70;48.40;;;;;;1537504;76;728;-57
2021/09/09 07:48:57;;;;;;;;;;;24.70;48.60;;;;;;1544327;74;674;-62
2021/09/09 07:50:59;;;;;;;;;;;24.70;48.40;;;;;;1553614;76;721;-61
2021/09/09 07:53:01;;;;;;;;;;;24.70;48.50;;;;;;1550058;76;1925;-58
2021/09/09 07:55:03;;;;;;;;;;;24.80;48.40;;;;;;1559046;76;706;-61
2021/09/09 07:57:05;;;;;;;;;;;24.80;48.30;;;;;;1540894;76;779;-61
2021/09/09 07:59:07;;;;;;;;;;;24.90;48.50;;;;;;1565260;76;662;-57
2021/09/09 08:01:09;;;;;;;;;;;25.20;48.50;;;;;;1556440;76;670;-59
2021/09/09 08:03:11;;;;;;;;;;;25.00;48.50;;;;;;1557929;76;1205;-57
2021/09/09 08:05:13;;;;;;;;;;;25.00;48.50;;;;;;1542987;76;755;-61
2021/09/09 08:07:15;;;;;;;;;;;25.00;48.40;;;;;;1554309;76;726;-58
2021/09/09 08:09:16;;;;;;;;;;;25.00;48.40;;;;;;1538106;76;886;-60
2021/09/09 08:11:18;;;;;;;;;;;25.00;48.40;;;;;;1550156;76;790;-58
2021/09/09 08:13:20;;;;;;;;;;;25.00;48.40;;;;;;1547260;76;1947;-59
2021/09/09 08:15:22;;;;;;;;;;;25.00;48.40;;;;;;1547349;76;789;-61
2021/09/09 08:17:24;;;;;;;;;;;25.00;48.30;;;;;;1553452;76;786;-62
2021/09/09 08:19:26;;;;;;;;;;;25.00;48.20;;;;;;1558648;76;757;-59
2021/09/09 08:21:28;;;;;;;;;;;25.10;47.90;;;;;;1561659;76;757;-59
2021/09/09 08:23:30;;;;;;;;;;;25.10;47.90;;;;;;1563388;76;1115;-60
2021/09/09 08:25:31;;;;;;;;;;;25.10;47.90;;;;;;1566354;76;799;-62
2021/09/09 08:27:33;;;;;;;;;;;25.10;47.90;;;;;;1559778;76;777;-61
2021/09/09 08:29:35;;;;;;;;;;;25.20;47.80;;;;;;1552036;76;777;-61
2021/09/09 08:31:37;;;;;;;;;;;25.20;47.60;;;;;;1558924;76;690;-60
2021/09/09 08:33:42;;;;;;;;;;;25.20;47.50;;;;;;1559169;76;1986;-59
2021/09/09 08:35:43;;;;;;;;;;;25.20;47.50;;;;;;1569967;76;1673;-61
2021/09/09 08:37:45;;;;;;;;;;;25.30;47.30;;;;;;1544720;76;759;-59
2021/09/09 08:39:46;;;;;;;;;;;25.20;47.30;;;;;;1558627;76;718;-60
2021/09/09 08:41:48;;;;;;;;;;;25.30;47.30;;;;;;1551833;76;767;-61
2021/09/09 08:43:50;;;;;;;;;;;25.30;47.20;;;;;;1558908;76;1177;-61
2021/09/09 08:45:53;;;;;;;;;;;25.30;47.10;;;;;;1561216;76;794;-58
2021/09/09 08:47:55;;;;;;;;;;;25.30;47.20;;;;;;1544986;76;674;-59
2021/09/09 08:49:56;;;;;;;;;;;25.40;47.30;;;;;;1546581;76;804;-60
2021/09/09 08:51:58;;;;;;;;;;;25.30;47.40;;;;;;1548412;76;700;-61
2021/09/09 08:54:00;;;;;;;;;;;25.30;47.40;;;;;;1558463;76;1899;-60
2021/09/09 08:56:03;;;;;;;;;;;25.40;47.50;;;;;;1517832;77;788;-59
2021/09/09 08:58:05;;;;;;;;;;;25.40;47.40;;;;;;1545845;76;689;-61
2021/09/09 09:00:08;;;;;;;;;;;25.30;47.40;;;;;;1552356;76;899;-60
2021/09/09 09:02:10;;;;;;;;;;;25.40;47.40;;;;;;1546252;76;782;-60
2021/09/09 09:04:12;;;;;;;;;;;25.40;47.80;;;;;;1554191;75;1128;-60
2021/09/09 09:06:28;;;;;;;;;;;25.30;47.80;;;;;;1556838;76;797;-59
2021/09/09 09:08:30;;;;;;;;;;;25.40;47.60;;;;;;1545139;76;799;-61
2021/09/09 09:10:32;;;;;;;;;;;25.30;47.60;;;;;;1517974;77;1139;-57
2021/09/09 09:12:38;;;;;;;;;;;25.40;47.60;;;;;;1552204;76;1935;-61
2021/09/09 09:14:39;;;;;;;;;;;25.30;47.60;;;;;;1548398;76;1129;-58
2021/09/09 09:16:45;;;;;;;;;;;25.30;47.50;;;;;;1541217;76;778;-57
2021/09/09 09:18:47;;;;;;;;;;;25.30;47.50;;;;;;1564091;76;685;-60
2021/09/09 09:20:49;;;;;;;;;;;25.30;47.50;;;;;;1564302;76;788;-59
2021/09/09 09:22:51;;;;;;;;;;;25.30;47.50;;;;;;1562452;76;701;-59
2021/09/09 09:24:53;;;;;;;;;;;25.30;47.50;;;;;;1555460;76;1201;-59
2021/09/09 09:27:14;;;;;;;;;;;25.40;47.50;;;;;;1551292;76;677;-61
2021/09/09 09:29:16;;;;;;;;;;;25.30;47.50;;;;;;1555456;76;771;-58
2021/09/09 09:31:19;;;;;;;;;;;25.30;47.50;;;;;;1527069;77;1222;-59
2021/09/09 09:33:33;;;;;;;;;;;25.30;47.50;;;;;;1538209;76;1938;-58
2021/09/09 09:35:35;;;;;;;;;;;25.30;47.60;;;;;;1554396;76;743;-58
2021/09/09 09:37:37;;;;;;;;;;;25.30;47.60;;;;;;1558448;76;934;-59
2021/09/09 09:39:39;;;;;;;;;;;25.20;47.60;;;;;;1549050;76;848;-58
2021/09/09 09:41:42;;;;;;;;;;;25.40;47.60;;;;;;1553860;76;807;-56
2021/09/09 09:43:54;;;;;;;;;;;25.20;47.60;;;;;;1557138;76;1214;-59
2021/09/09 09:45:58;;;;;;;;;;;25.20;47.60;;;;;;1544291;76;755;-59
2021/09/09 09:47:59;;;;;;;;;;;25.30;47.60;;;;;;1549869;76;1665;-58
2021/09/09 09:50:01;;;;;;;;;;;25.20;47.60;;;;;;1546094;76;736;-57
2021/09/09 09:52:03;;;;;;;;;;;25.20;47.60;;;;;;1519799;77;792;-57
2021/09/09 09:54:12;;;;;;;;;;;25.30;47.60;;;;;;1540807;76;1923;-60
2021/09/09 09:56:14;;;;;;;;;;;25.20;47.50;;;;;;1550841;76;743;-58
2021/09/09 09:58:16;;;;;;;;;;;25.30;47.60;;;;;;1515361;77;756;-57
2021/09/09 10:00:18;;;;;;;;;;;25.20;47.60;;;;;;1557227;76;737;-58
2021/09/09 10:02:20;;;;;;;;;;;25.20;47.60;;;;;;1536189;76;807;-57
2021/09/09 10:04:22;;;;;;;;;;;25.30;47.50;;;;;;1553790;76;1168;-59
2021/09/09 10:06:24;;;;;;;;;;;25.30;47.60;;;;;;1552098;76;669;-59
2021/09/09 10:08:26;;;;;;;;;;;25.20;47.60;;;;;;1548687;75;772;-60
2021/09/09 10:10:28;;;;;;;;;;;25.20;47.60;;;;;;1551503;76;804;-60
2021/09/09 10:12:29;;;;;;;;;;;25.20;47.60;;;;;;1551904;76;704;-60
2021/09/09 10:14:31;;;;;;;;;;;25.20;47.60;;;;;;1545871;76;1933;-56
2021/09/09 10:16:35;;;;;;;;;;;25.10;47.60;;;;;;1557382;76;696;-57
2021/09/09 10:18:37;;;;;;;;;;;25.20;47.60;;;;;;1549273;76;1785;-60
2021/09/09 10:20:41;;;;;;;;;;;25.10;47.60;;;;;;1559721;74;738;-60
2021/09/09 10:22:45;;;;;;;;;;;25.20;47.60;;;;;;1556908;76;793;-59
2021/09/09 10:24:47;;;;;;;;;;;25.10;47.50;;;;;;1550246;76;1982;-60
2021/09/09 10:26:49;;;;;;;;;;;25.20;47.60;;;;;;1554201;76;756;-59
2021/09/09 10:28:51;;;;;;;;;;;25.10;47.60;;;;;;1557953;76;739;-59
2021/09/09 10:31:03;;;;;;;;;;;25.10;47.60;;;;;;1565823;76;690;-60
2021/09/09 10:33:05;;;;;;;;;;;25.10;47.60;;;;;;1550296;76;1968;-59
2021/09/09 10:35:26;;;;;;;;;;;25.10;47.60;;;;;;1552193;76;732;-57
2021/09/09 10:37:25;;;;;;;;;;;25.10;47.70;;;;;;1555011;76;1767;-60
2021/09/09 10:39:38;;;;;;;;;;;25.10;47.70;;;;;;1551468;76;1750;-58
2021/09/09 10:41:40;;;;;;;;;;;25.10;47.60;;;;;;1545650;76;762;-59
2021/09/09 10:43:45;;;;;;;;;;;25.00;47.70;;;;;;1549507;76;1129;-58
2021/09/09 10:45:47;;;;;;;;;;;25.00;47.70;;;;;;1554162;76;741;-57
2021/09/09 10:47:51;;;;;;;;;;;25.00;47.80;;;;;;1555097;76;766;-58
2021/09/09 10:50:04;;;;;;;;;;;25.00;47.80;;;;;;1547796;76;798;-57
2021/09/09 10:52:07;;;;;;;;;;;25.00;47.80;;;;;;1549376;76;2592;-59
2021/09/09 10:54:10;;;;;;;;;;;25.00;47.80;;;;;;1563856;76;1918;-60
2021/09/09 10:56:13;;;;;;;;;;;24.90;47.90;;;;;;1541654;75;1441;-59
2021/09/09 10:58:23;;;;;;;;;;;24.90;47.90;;;;;;1530872;76;682;-60
2021/09/09 11:00:26;;;;;;;;;;;24.90;48.00;;;;;;1550283;76;726;-58
2021/09/09 11:02:28;;;;;;;;;;;25.00;48.00;;;;;;1554463;76;1722;-58
2021/09/09 11:04:31;;;;;;;;;;;24.90;48.00;;;;;;1551940;76;1151;-57
2021/09/09 11:06:34;;;;;;;;;;;25.00;48.00;;;;;;1556572;76;723;-60
2021/09/09 11:08:36;;;;;;;;;;;24.90;48.00;;;;;;1545128;76;798;-59
2021/09/09 11:10:39;;;;;;;;;;;24.90;48.00;;;;;;1553349;76;723;-59
2021/09/09 11:12:41;;;;;;;;;;;24.90;48.10;;;;;;1557141;76;720;-56
2021/09/09 11:14:43;;;;;;;;;;;24.80;48.00;;;;;;1548407;76;1927;-57
2021/09/09 11:16:44;;;;;;;;;;;24.80;48.00;;;;;;1556000;76;747;-60
2021/09/09 11:18:46;;;;;;;;;;;24.80;48.10;;;;;;1539441;76;756;-58
2021/09/09 11:20:48;;;;;;;;;;;24.80;48.00;;;;;;1552602;76;761;-56
2021/09/09 11:22:50;;;;;;;;;;;24.80;48.10;;;;;;1543210;76;647;-56
2021/09/09 11:24:53;;;;;;;;;;;24.80;48.10;;;;;;1558107;75;1184;-57
2021/09/09 11:26:56;;;;;;;;;;;24.80;48.10;;;;;;1559154;75;696;-57
2021/09/09 11:28:58;;;;;;;;;;;24.80;48.10;;;;;;1559093;75;973;-57
2021/09/09 11:31:10;;;;;;;;;;;24.80;48.10;;;;;;1558133;75;716;-58
2021/09/09 11:33:13;;;;;;;;;;;24.70;48.10;;;;;;1557993;75;1951;-57
2021/09/09 11:35:15;;;;;;;;;;;24.80;48.20;;;;;;1555531;75;752;-56
2021/09/09 11:37:17;;;;;;;;;;;24.80;48.20;;;;;;1561307;75;776;-57
2021/09/09 11:39:20;;;;;;;;;;;24.70;48.20;;;;;;1553521;75;741;-56
2021/09/09 11:41:22;;;;;;;;;;;24.80;48.30;;;;;;1553023;75;723;-57
2021/09/09 11:43:24;;;;;;;;;;;24.60;48.20;;;;;;1552923;75;1140;-57
2021/09/09 11:45:26;;;;;;;;;;;24.80;48.30;;;;;;1552890;75;701;-59
2021/09/09 11:47:28;;;;;;;;;;;24.70;48.30;;;;;;1552897;75;801;-57
2021/09/09 11:49:30;;;;;;;;;;;24.70;48.30;;;;;;1550034;75;741;-58
2021/09/09 11:51:32;;;;;;;;;;;24.70;48.40;;;;;;1548802;75;802;-58
2021/09/09 11:53:34;;;;;;;;;;;24.70;48.40;;;;;;1558391;75;1917;-57
2021/09/09 11:55:37;;;;;;;;;;;24.70;48.40;;;;;;1560397;75;799;-57
2021/09/09 11:57:43;;;;;;;;;;;24.70;48.40;;;;;;1563484;75;764;-57
2021/09/09 11:59:52;;;;;;;;;;;24.70;48.50;;;;;;1568331;75;695;-57
2021/09/09 12:01:55;;;;;;;;;;;24.60;48.40;;;;;;1553887;75;733;-58
2021/09/09 12:04:01;;;;;;;;;;;24.70;48.60;;;;;;1560922;75;1902;-59
2021/09/09 12:06:03;;;;;;;;;;;24.70;48.60;;;;;;1556960;75;836;-58
2021/09/09 12:08:06;;;;;;;;;;;24.60;48.50;;;;;;1555091;75;719;-58
2021/09/09 12:10:16;;;;;;;;;;;24.60;48.50;;;;;;1560469;75;705;-56